createdAt,value
2017-05-05T00:00:02.185Z,10.66
2017-05-05T00:02:44.490Z,13.08
2017-05-05T00:05:12.988Z,10.00
2017-05-05T00:07:45.853Z,10.50
2017-05-05T00:10:15.446Z,10.56
2017-05-05T00:15:44.843Z,11.50
2017-05-05T00:24:02.669Z,10.16
2017-05-05T00:26:43.894Z,11.06
2017-05-05T00:29:13.517Z,10.22
2017-05-05T00:31:43.587Z,12.26
2017-05-05T00:34:12.164Z,10.50
2017-05-05T00:36:56.639Z,11.40
2017-05-05T00:39:25.122Z,10.76
2017-05-05T00:41:56.959Z,10.54
2017-05-05T00:44:44.694Z,10.32
2017-05-05T00:47:13.921Z,11.00
2017-05-05T00:49:44.620Z,10.76
2017-05-05T00:52:13.033Z,10.26
2017-05-05T00:54:45.316Z,11.22
2017-05-05T01:00:09.341Z,11.48
2017-05-05T01:02:45.728Z,11.14
2017-05-05T01:05:17.647Z,10.90
2017-05-05T01:07:49.017Z,12.32
2017-05-05T01:10:20.188Z,11.06
2017-05-05T01:12:48.636Z,11.14
2017-05-05T01:15:17.999Z,11.80
2017-05-05T01:17:50.113Z,10.74
2017-05-05T01:23:14.385Z,10.42
2017-05-05T01:25:47.104Z,10.80
2017-05-05T01:28:15.690Z,10.66
2017-05-05T01:30:46.064Z,11.38
2017-05-05T01:33:16.030Z,10.78
2017-05-05T01:35:44.422Z,10.62
2017-05-05T01:40:54.473Z,10.62
2017-05-05T01:43:30.006Z,11.02
2017-05-05T01:46:04.069Z,10.36
2017-05-05T01:51:43.539Z,10.66
2017-05-05T01:57:05.788Z,11.86
2017-05-05T01:59:36.497Z,11.66
2017-05-05T02:02:05.041Z,10.80
2017-05-05T02:04:46.000Z,11.46
2017-05-05T02:07:15.213Z,10.88
2017-05-05T02:09:45.138Z,11.08
2017-05-05T02:15:03.956Z,11.86
2017-05-05T02:17:36.493Z,11.42
2017-05-05T02:20:08.629Z,11.64
2017-05-05T02:22:52.094Z,11.58
2017-05-05T02:25:21.396Z,10.58
2017-05-05T02:27:57.450Z,10.50
2017-05-05T02:30:45.194Z,10.54
2017-05-05T02:33:13.554Z,11.16
2017-05-05T02:38:44.643Z,10.10
2017-05-05T02:41:14.584Z,10.66
2017-05-05T02:43:47.472Z,10.86
2017-05-05T02:48:58.609Z,10.60
2017-05-05T02:51:27.862Z,15.14
2017-05-05T02:56:54.955Z,11.82
2017-05-05T02:59:23.350Z,10.12
2017-05-05T03:01:51.956Z,10.44
2017-05-05T03:04:43.945Z,10.32
2017-05-05T03:07:13.303Z,11.16
2017-05-05T03:09:45.869Z,11.22
2017-05-05T03:12:15.150Z,11.08
2017-05-05T03:14:45.073Z,9.44
2017-05-05T03:17:20.411Z,10.18
2017-05-05T03:19:49.772Z,12.36
2017-05-05T03:22:45.193Z,10.90
2017-05-05T03:25:24.350Z,9.78
2017-05-05T03:27:52.717Z,10.38
2017-05-05T03:30:44.373Z,11.78
2017-05-05T03:33:14.318Z,9.78
2017-05-05T03:35:45.789Z,10.26
2017-05-05T03:40:56.056Z,11.26
2017-05-05T03:43:43.492Z,10.72
2017-05-05T03:46:11.976Z,10.38
2017-05-05T03:48:46.617Z,12.04
2017-05-05T03:51:15.750Z,10.28
2017-05-05T03:53:45.611Z,10.46
2017-05-05T03:56:14.825Z,11.46
2017-05-05T03:58:45.096Z,11.18
2017-05-05T04:01:14.296Z,11.80
2017-05-05T04:03:46.188Z,10.48
2017-05-05T04:06:14.567Z,11.02
2017-05-05T04:08:56.398Z,12.16
2017-05-05T04:11:26.480Z,9.90
2017-05-05T04:13:55.858Z,10.88
2017-05-05T04:16:44.313Z,11.48
2017-05-05T04:22:16.482Z,10.44
2017-05-05T04:24:45.776Z,10.44
2017-05-05T04:27:17.118Z,11.50
2017-05-05T04:29:45.601Z,11.20
2017-05-05T04:35:06.446Z,11.16
2017-05-05T04:37:45.195Z,10.20
2017-05-05T04:40:16.482Z,10.98
2017-05-05T04:42:44.940Z,11.46
2017-05-05T04:48:08.142Z,10.34
2017-05-05T04:50:44.663Z,12.04
2017-05-05T04:56:08.805Z,11.86
2017-05-05T04:58:44.789Z,11.12
2017-05-05T05:01:14.673Z,11.68
2017-05-05T05:03:45.694Z,10.64
2017-05-05T05:12:04.174Z,11.58
2017-05-05T05:14:45.413Z,11.50
2017-05-05T05:17:14.684Z,12.38
2017-05-05T05:19:46.380Z,13.64
2017-05-05T05:25:05.159Z,11.80
2017-05-05T05:27:46.080Z,10.76
2017-05-05T05:36:02.407Z,20.54
2017-05-05T05:38:44.143Z,27.28
2017-05-05T05:41:13.408Z,26.46
2017-05-05T05:43:44.912Z,27.52
2017-05-05T05:46:13.377Z,27.46
2017-05-05T05:48:44.560Z,23.84
2017-05-05T05:51:14.549Z,21.26
2017-05-05T05:53:46.037Z,21.02
2017-05-05T05:59:09.553Z,19.18
2017-05-05T06:01:41.646Z,17.62
2017-05-05T06:04:10.058Z,15.46
2017-05-05T06:06:39.235Z,17.94
2017-05-05T06:15:05.803Z,15.72
2017-05-05T06:17:44.626Z,15.64
2017-05-05T06:26:01.295Z,13.30
2017-05-05T06:28:44.666Z,15.30
2017-05-05T06:31:21.808Z,14.46
2017-05-05T06:36:46.649Z,13.60
2017-05-05T06:39:16.748Z,14.18
2017-05-05T06:41:46.983Z,13.94
2017-05-05T06:44:16.084Z,12.78
2017-05-05T06:46:49.752Z,13.50
2017-05-05T07:01:06.435Z,14.34
2017-05-05T07:03:45.946Z,13.58
2017-05-05T07:09:08.472Z,16.38
2017-05-05T07:11:36.977Z,13.92
2017-05-05T07:17:00.861Z,15.90
2017-05-05T07:19:44.481Z,17.72
2017-05-05T07:25:11.071Z,16.80
2017-05-05T07:27:45.780Z,16.50
2017-05-05T07:36:06.588Z,17.12
2017-05-05T07:38:45.975Z,17.44
2017-05-05T07:44:10.297Z,20.76
2017-05-05T07:46:46.119Z,19.74
2017-05-05T07:55:02.628Z,27.90
2017-05-05T07:57:44.908Z,26.58
2017-05-05T08:00:23.915Z,24.20
2017-05-05T08:02:53.734Z,24.54
2017-05-05T08:05:29.584Z,22.68
2017-05-05T08:13:49.771Z,23.94
2017-05-05T08:16:18.456Z,22.30
2017-05-05T08:18:46.820Z,21.58
2017-05-05T08:21:25.319Z,21.36
2017-05-05T08:23:56.612Z,22.12
2017-05-05T08:26:25.856Z,19.92
2017-05-05T08:31:48.359Z,21.10
2017-05-05T08:34:16.723Z,18.94
2017-05-05T08:36:46.046Z,19.04
2017-05-05T08:39:15.495Z,20.46
2017-05-05T08:41:44.889Z,20.30
2017-05-05T08:44:16.341Z,20.34
2017-05-05T08:46:45.486Z,20.66
2017-05-05T08:49:13.848Z,20.32
2017-05-05T08:51:42.428Z,19.76
2017-05-05T08:57:05.214Z,20.66
2017-05-05T08:59:35.125Z,21.90
2017-05-05T09:02:04.515Z,22.14
2017-05-05T09:07:20.884Z,21.64
2017-05-05T09:09:50.126Z,20.38
2017-05-05T09:12:24.215Z,23.24
2017-05-05T09:14:56.325Z,21.28
2017-05-05T09:17:24.893Z,22.96
2017-05-05T09:20:00.387Z,22.34
2017-05-05T09:22:30.424Z,20.30
2017-05-05T09:27:56.045Z,21.22
2017-05-05T09:30:44.116Z,19.96
2017-05-05T09:36:07.913Z,20.36
2017-05-05T09:38:44.876Z,19.76
2017-05-05T09:41:14.025Z,21.98
2017-05-05T09:43:47.374Z,18.98
2017-05-05T09:49:09.582Z,19.70
2017-05-05T09:51:38.841Z,19.54
2017-05-05T09:57:05.296Z,20.86
2017-05-05T09:59:36.783Z,21.34
2017-05-05T10:02:08.787Z,19.52
2017-05-05T10:04:37.268Z,23.34
2017-05-05T10:07:06.543Z,20.20
2017-05-05T10:09:35.835Z,20.78
2017-05-05T10:12:05.089Z,19.62
2017-05-05T10:14:34.620Z,23.06
2017-05-05T10:17:04.509Z,21.64
2017-05-05T10:19:34.039Z,20.08
2017-05-05T10:22:06.530Z,23.06
2017-05-05T10:24:35.671Z,22.06
2017-05-05T10:27:04.040Z,19.62
2017-05-05T10:29:45.913Z,20.50
2017-05-05T10:32:17.301Z,20.20
2017-05-05T10:34:48.810Z,20.44
2017-05-05T10:37:20.826Z,21.36
2017-05-05T10:39:49.292Z,23.10
2017-05-05T10:45:13.531Z,20.42
2017-05-05T10:47:42.799Z,19.62
2017-05-05T10:50:11.373Z,20.86
2017-05-05T10:52:40.898Z,21.86
2017-05-05T10:55:10.847Z,22.96
2017-05-05T10:57:39.335Z,20.88
2017-05-05T11:00:08.578Z,21.62
2017-05-05T11:02:36.997Z,21.38
2017-05-05T11:05:06.245Z,21.76
2017-05-05T11:07:34.613Z,22.76
2017-05-05T11:10:05.907Z,23.46
2017-05-05T11:12:38.152Z,20.72
2017-05-05T11:15:14.140Z,22.20
2017-05-05T11:17:44.017Z,22.66
2017-05-05T11:20:16.128Z,21.90
2017-05-05T11:22:44.531Z,22.38
2017-05-05T11:25:19.756Z,22.34
2017-05-05T11:27:48.869Z,23.44
2017-05-05T11:30:40.684Z,22.06
2017-05-05T11:36:03.665Z,22.96
2017-05-05T11:38:51.404Z,22.02
2017-05-05T11:41:19.846Z,24.68
2017-05-05T11:43:49.718Z,24.56
2017-05-05T11:46:19.149Z,25.62
2017-05-05T11:51:54.193Z,25.70
2017-05-05T11:54:43.849Z,25.96
2017-05-05T11:57:12.983Z,24.06
2017-05-05T11:59:43.058Z,25.02
2017-05-05T12:02:18.319Z,22.80
2017-05-05T12:04:52.393Z,23.10
2017-05-05T12:07:21.748Z,24.90
2017-05-05T12:09:50.886Z,23.92
2017-05-05T12:12:20.168Z,23.92
2017-05-05T12:14:48.533Z,24.98
2017-05-05T12:20:10.618Z,25.84
2017-05-05T12:25:34.213Z,25.34
2017-05-05T12:28:03.325Z,23.18
2017-05-05T12:30:45.081Z,20.82
2017-05-05T12:33:14.279Z,25.60
2017-05-05T12:35:42.699Z,25.60
2017-05-05T12:38:11.206Z,25.08
2017-05-05T12:40:45.937Z,24.40
2017-05-05T12:43:14.385Z,21.90
2017-05-05T12:45:52.508Z,23.24
2017-05-05T12:48:45.292Z,25.12
2017-05-05T12:51:14.496Z,22.06
2017-05-05T12:53:54.405Z,22.12
2017-05-05T12:56:46.574Z,22.54
2017-05-05T12:59:15.205Z,21.04
2017-05-05T13:04:21.681Z,22.02
2017-05-05T13:09:53.883Z,23.28
2017-05-05T13:15:13.905Z,24.14
2017-05-05T13:17:41.721Z,25.26
2017-05-05T13:23:08.886Z,21.90
2017-05-05T13:25:45.401Z,23.44
2017-05-05T13:28:22.176Z,22.76
2017-05-05T13:30:54.917Z,21.66
2017-05-05T13:33:23.483Z,22.74
2017-05-05T13:35:54.659Z,22.28
2017-05-05T13:38:28.798Z,24.62
2017-05-05T13:40:59.494Z,21.74
2017-05-05T13:43:28.578Z,22.16
2017-05-05T13:45:56.992Z,22.58
2017-05-05T13:48:26.118Z,22.36
2017-05-05T13:50:58.324Z,25.02
2017-05-05T13:53:46.145Z,22.34
2017-05-05T13:56:14.589Z,23.70
2017-05-05T13:58:53.043Z,23.66
2017-05-05T14:01:23.196Z,23.58
2017-05-05T14:06:46.396Z,24.26
2017-05-05T14:12:09.909Z,24.56
2017-05-05T14:14:38.366Z,24.88
2017-05-05T14:20:01.774Z,23.80
2017-05-05T14:22:30.167Z,26.36
2017-05-05T14:24:59.392Z,24.18
2017-05-05T14:27:45.565Z,25.32
2017-05-05T14:30:17.388Z,23.74
2017-05-05T14:35:40.004Z,25.30
2017-05-05T14:38:09.277Z,25.22
2017-05-05T14:43:39.504Z,25.76
2017-05-05T14:46:11.426Z,25.60
2017-05-05T14:48:42.668Z,26.04
2017-05-05T14:51:12.628Z,27.52
2017-05-05T14:53:47.548Z,25.44
2017-05-05T14:56:18.820Z,25.76
2017-05-05T14:58:47.247Z,25.88
2017-05-05T15:07:08.314Z,25.98
2017-05-05T15:09:36.721Z,26.68
2017-05-05T15:12:06.961Z,24.72
2017-05-05T15:14:36.040Z,29.56
2017-05-05T15:17:07.291Z,29.06
2017-05-05T15:19:42.546Z,29.86
2017-05-05T15:22:10.912Z,29.52
2017-05-05T15:24:45.284Z,27.04
2017-05-05T15:30:11.174Z,25.84
2017-05-05T15:32:42.808Z,25.06
2017-05-05T15:35:21.458Z,25.80
2017-05-05T15:37:51.418Z,23.72
2017-05-05T15:40:19.826Z,24.98
2017-05-05T15:42:48.248Z,24.36
2017-05-05T15:45:44.414Z,25.22
2017-05-05T15:59:00.175Z,28.54
2017-05-05T16:01:29.162Z,30.08
2017-05-05T16:07:45.553Z,28.86
2017-05-05T16:10:44.574Z,29.68
2017-05-05T16:13:13.565Z,28.48
2017-05-05T16:15:42.573Z,31.10
2017-05-05T16:18:11.580Z,30.92
2017-05-05T16:20:46.318Z,32.44
2017-05-05T16:23:45.296Z,29.56
2017-05-05T16:26:14.290Z,31.24
2017-05-05T16:28:43.921Z,31.92
2017-05-05T16:31:16.573Z,30.22
2017-05-05T16:33:50.921Z,30.34
2017-05-05T16:36:22.244Z,33.02
2017-05-05T16:38:52.365Z,29.88
2017-05-05T16:41:21.372Z,29.74
2017-05-05T16:46:54.913Z,31.02
2017-05-05T16:49:45.609Z,30.14
2017-05-05T16:52:16.895Z,29.84
2017-05-05T16:57:53.212Z,27.34
2017-05-05T17:00:45.382Z,30.36
2017-05-05T17:03:44.516Z,27.84
2017-05-05T17:06:36.925Z,26.40
2017-05-05T17:18:10.072Z,25.02
2017-05-05T17:20:46.413Z,26.32
2017-05-05T17:23:23.089Z,24.22
2017-05-05T17:25:53.865Z,26.26
2017-05-05T17:28:46.277Z,39.30
2017-05-05T17:37:45.552Z,101.35
2017-05-05T17:40:18.077Z,134.70
2017-05-05T17:42:47.817Z,210.84
2017-05-05T17:45:44.723Z,208.32
2017-05-05T17:48:13.766Z,229.72
2017-05-05T17:50:46.285Z,206.18
2017-05-05T17:53:41.710Z,217.16
2017-05-05T18:02:14.926Z,218.90
2017-05-05T18:04:46.973Z,239.22
2017-05-05T18:13:44.171Z,279.42
2017-05-05T18:16:13.238Z,269.10
2017-05-05T18:19:09.350Z,262.00
2017-05-05T18:21:38.442Z,289.18
2017-05-05T18:27:08.568Z,324.54
2017-05-05T18:29:46.445Z,322.06
2017-05-05T18:32:33.243Z,307.48
2017-05-05T18:35:02.242Z,323.56
2017-05-05T18:37:45.906Z,326.82
2017-05-05T18:40:15.002Z,319.92
2017-05-05T18:42:44.014Z,307.46
2017-05-05T18:45:44.346Z,301.78
2017-05-05T18:48:13.357Z,311.60
2017-05-05T18:50:43.127Z,302.78
2017-05-05T18:53:12.218Z,303.18
2017-05-05T18:55:41.222Z,296.36
2017-05-05T19:01:11.167Z,290.12
2017-05-05T19:03:40.224Z,299.96
2017-05-05T19:06:09.252Z,292.30
2017-05-05T19:08:46.029Z,298.08
2017-05-05T19:11:15.076Z,286.52
2017-05-05T19:13:44.093Z,286.64
2017-05-05T19:16:13.094Z,284.22
2017-05-05T19:18:42.169Z,275.52
2017-05-05T19:27:44.410Z,253.86
2017-05-05T19:30:36.627Z,258.36
2017-05-05T19:39:08.516Z,236.82
2017-05-05T19:41:46.093Z,248.22
2017-05-05T19:44:15.109Z,222.88
2017-05-05T19:46:44.102Z,227.04
2017-05-05T19:49:13.093Z,230.42
2017-05-05T19:51:42.181Z,220.66
2017-05-05T19:54:11.277Z,246.18
2017-05-05T19:56:40.384Z,229.70
2017-05-05T19:59:09.470Z,210.26
2017-05-05T20:02:23.126Z,220.46
2017-05-05T20:04:52.126Z,206.92
2017-05-05T20:07:21.174Z,219.66
2017-05-05T20:09:50.194Z,220.50
2017-05-05T20:12:19.284Z,213.24
2017-05-05T20:14:48.322Z,209.66
2017-05-05T20:19:02.278Z,217.36
2017-05-05T20:21:32.018Z,200.30
2017-05-05T20:24:01.038Z,209.93
2017-05-05T20:26:30.117Z,198.08
2017-05-05T20:32:00.578Z,198.50
2017-05-05T20:34:29.666Z,184.46
2017-05-05T20:36:58.767Z,190.32
2017-05-05T20:39:27.758Z,191.80
2017-05-05T20:41:56.847Z,201.60
2017-05-05T20:44:25.869Z,194.24
2017-05-05T20:46:54.879Z,179.32
2017-05-05T20:49:23.873Z,180.60
2017-05-05T20:51:52.874Z,184.62
2017-05-05T20:54:22.620Z,192.10
2017-05-05T20:56:51.731Z,177.68
2017-05-05T20:59:20.741Z,188.62
2017-05-05T21:01:49.743Z,189.16
2017-05-05T21:04:44.419Z,151.32
2017-05-05T21:07:13.450Z,140.02
2017-05-05T21:09:43.230Z,135.84
2017-05-05T21:12:12.298Z,115.42
2017-05-05T21:14:47.809Z,110.48
2017-05-05T21:17:17.647Z,98.12
2017-05-05T21:19:46.643Z,91.82
2017-05-05T21:22:15.663Z,87.42
2017-05-05T21:24:46.387Z,85.00
2017-05-05T21:27:15.480Z,72.86
2017-05-05T21:29:44.651Z,70.74
2017-05-05T21:32:13.771Z,71.08
2017-05-05T21:34:42.858Z,68.28
2017-05-05T21:37:11.854Z,67.98
2017-05-05T21:39:40.946Z,63.60
2017-05-05T21:42:09.943Z,73.58
2017-05-05T21:44:39.034Z,85.38
2017-05-05T21:47:08.065Z,95.18
2017-05-05T21:49:37.126Z,96.12
2017-05-05T21:52:06.223Z,100.54
2017-05-05T21:54:35.273Z,100.36
2017-05-05T21:57:05.024Z,99.56
2017-05-05T21:59:46.829Z,106.38
2017-05-05T22:02:15.817Z,103.40
2017-05-05T22:04:44.828Z,107.20
2017-05-05T22:07:13.883Z,105.10
2017-05-05T22:09:46.149Z,106.76
2017-05-05T22:12:16.114Z,104.54
2017-05-05T22:14:45.102Z,106.90
2017-05-05T22:17:14.153Z,101.82
2017-05-05T22:19:43.258Z,99.56
2017-05-05T22:22:12.344Z,104.10
2017-05-05T22:24:41.451Z,102.60
2017-05-05T22:30:11.994Z,100.00
2017-05-05T22:32:41.093Z,100.98
2017-05-05T22:35:10.182Z,99.42
2017-05-05T22:37:46.178Z,98.98
2017-05-05T22:40:45.771Z,99.50
2017-05-05T22:43:14.842Z,97.38
2017-05-05T22:45:47.444Z,99.82
2017-05-05T22:48:16.518Z,100.08
2017-05-05T22:53:24.034Z,95.90
2017-05-05T22:55:53.132Z,93.30
2017-05-05T22:58:22.206Z,93.66
2017-05-05T23:00:51.297Z,94.44
2017-05-05T23:03:46.319Z,89.86
2017-05-05T23:06:15.354Z,92.06
2017-05-05T23:08:45.120Z,91.94
2017-05-05T23:11:14.205Z,91.04
2017-05-05T23:13:43.231Z,89.64
2017-05-05T23:22:14.572Z,86.36
2017-05-05T23:24:43.578Z,79.80
2017-05-05T23:27:12.560Z,87.54
2017-05-05T23:29:41.657Z,82.34
2017-05-05T23:32:10.667Z,84.38
2017-05-05T23:34:39.855Z,82.50
2017-05-05T23:37:08.882Z,82.86
2017-05-05T23:39:37.866Z,80.94
2017-05-05T23:42:06.934Z,79.16
2017-05-05T23:44:46.285Z,79.90
2017-05-05T23:47:45.178Z,75.26
2017-05-05T23:50:14.263Z,80.22
2017-05-05T23:52:47.029Z,75.88
2017-05-05T23:55:16.140Z,77.40
2017-05-05T23:57:45.134Z,74.36
